Time;durP1;ratioP1;P1;durP2;ratioP2;P2;SDS_P1;SDS_P2;PMS_P1;PMS_P2;Temp;Humidity;BMP_temperature;BMP_pressure;BME280_temperature;BME280_humidity;BME280_pressure;Samples;Min_cycle;Max_cycle;Signal;HPM_P1;HPM_P2
2023/09/28 00:00:35;;;;;;;8.65;5.78;;;13.20;99.90;;;;;;5113204;28;20027;-63
2023/09/28 00:02:46;;;;;;;7.72;5.90;;;13.20;99.90;;;;;;5109913;28;20031;-63
2023/09/28 00:05:16;;;;;;;10.90;6.57;;;13.20;99.90;;;;;;5104400;28;20443;-63
2023/09/28 00:07:44;;;;;;;7.23;5.30;;;13.10;99.90;;;;;;5112898;28;20406;-63
2023/09/28 00:10:12;;;;;;;9.02;6.13;;;13.10;99.90;;;;;;5105978;28;20032;-65
2023/09/28 00:12:52;;;;;;;6.40;5.22;;;13.10;99.90;;;;;;5090931;28;20206;-63
2023/09/28 00:15:19;;;;;;;7.27;5.67;;;13.10;99.90;;;;;;5110736;28;20036;-69
2023/09/28 00:17:47;;;;;;;8.85;6.20;;;13.00;99.90;;;;;;5113344;28;20023;-65
2023/09/28 00:20:23;;;;;;;9.07;5.90;;;13.00;99.90;;;;;;5112964;28;20097;-65
2023/09/28 00:22:53;;;;;;;7.30;5.93;;;13.00;99.90;;;;;;5112966;28;20027;-65
2023/09/28 00:25:21;;;;;;;7.10;5.70;;;13.00;99.90;;;;;;5112234;28;20027;-71
2023/09/28 00:27:50;;;;;;;10.68;6.65;;;13.00;99.90;;;;;;5092965;28;20115;-65
2023/09/28 00:30:19;;;;;;;6.40;5.70;;;13.10;99.90;;;;;;5097925;28;20030;-65
2023/09/28 00:32:46;;;;;;;8.70;5.77;;;13.10;99.90;;;;;;5108319;28;20027;-65
2023/09/28 00:35:11;;;;;;;8.60;5.65;;;13.00;99.90;;;;;;5108362;28;20433;-65
2023/09/28 00:37:37;;;;;;;7.15;5.50;;;13.00;99.90;;;;;;5107748;28;20015;-65
2023/09/28 00:40:19;;;;;;;7.38;5.65;;;13.00;99.90;;;;;;5112210;28;20032;-64
2023/09/28 00:42:52;;;;;;;7.18;5.20;;;13.00;99.90;;;;;;5112699;28;20027;-65
2023/09/28 00:45:20;;;;;;;7.13;5.22;;;12.90;99.90;;;;;;5105415;28;23337;-70
2023/09/28 00:47:46;;;;;;;6.70;5.68;;;12.90;99.90;;;;;;5096390;28;20047;-65
2023/09/28 00:50:17;;;;;;;10.40;6.43;;;12.90;99.90;;;;;;5112401;28;20027;-65
2023/09/28 00:52:46;;;;;;;9.15;6.45;;;13.00;99.90;;;;;;5097408;28;20030;-66
2023/09/28 00:55:15;;;;;;;9.32;6.35;;;13.10;99.90;;;;;;5105416;28;20023;-65
2023/09/28 00:57:42;;;;;;;9.35;6.53;;;13.00;99.90;;;;;;5112175;28;20028;-65
2023/09/28 01:00:26;;;;;;;8.80;5.50;;;13.00;99.90;;;;;;5112010;28;20027;-65
2023/09/28 01:02:54;;;;;;;7.88;5.40;;;13.00;99.90;;;;;;5093691;28;20043;-65
2023/09/28 01:05:39;;;;;;;7.55;5.53;;;13.00;99.90;;;;;;5098549;28;20468;-71
2023/09/28 01:08:14;;;;;;;7.05;5.63;;;13.00;99.90;;;;;;5112598;28;20106;-65
2023/09/28 01:10:41;;;;;;;7.10;4.80;;;12.90;99.90;;;;;;5090993;28;20032;-63
2023/09/28 01:13:11;;;;;;;5.97;5.10;;;12.90;99.90;;;;;;5093235;28;20054;-65
2023/09/28 01:15:42;;;;;;;6.82;5.20;;;12.90;99.90;;;;;;5089810;28;20049;-64
2023/09/28 01:18:09;;;;;;;6.85;5.13;;;12.80;99.90;;;;;;5093958;28;20028;-63
2023/09/28 01:20:37;;;;;;;8.30;5.63;;;12.80;99.90;;;;;;5086476;28;20024;-65
2023/09/28 01:23:04;;;;;;;8.68;6.10;;;12.80;99.90;;;;;;5093265;28;20028;-65
2023/09/28 01:25:30;;;;;;;7.60;5.13;;;12.90;99.90;;;;;;5091794;28;20391;-65
2023/09/28 01:27:56;;;;;;;6.25;4.95;;;12.90;99.90;;;;;;5093477;28;20020;-65
2023/09/28 01:30:23;;;;;;;8.55;4.95;;;13.00;99.90;;;;;;5092209;28;20031;-65
2023/09/28 01:32:48;;;;;;;5.82;4.53;;;13.00;99.90;;;;;;5092051;28;20064;-65
2023/09/28 01:35:14;;;;;;;7.18;4.68;;;13.00;99.90;;;;;;5091351;28;20020;-65
2023/09/28 01:38:09;;;;;;;7.90;4.20;;;13.10;99.90;;;;;;5089447;28;20040;-65
2023/09/28 01:40:35;;;;;;;6.57;4.57;;;13.10;99.90;;;;;;5054570;28;20046;-65
2023/09/28 01:43:00;;;;;;;7.32;4.38;;;13.10;99.90;;;;;;5093494;28;20024;-65
2023/09/28 01:45:26;;;;;;;6.75;4.53;;;13.10;99.90;;;;;;5090060;28;20020;-66
2023/09/28 01:47:51;;;;;;;7.90;5.10;;;13.10;99.90;;;;;;5092688;28;20048;-65
2023/09/28 01:50:17;;;;;;;7.63;4.85;;;13.10;99.90;;;;;;5089240;28;20024;-71
2023/09/28 01:52:42;;;;;;;8.32;5.32;;;13.10;99.90;;;;;;5094954;28;20023;-65
2023/09/28 01:55:08;;;;;;;5.22;4.35;;;13.10;99.90;;;;;;5084421;28;20032;-65
2023/09/28 01:57:34;;;;;;;8.50;4.47;;;13.20;99.90;;;;;;5090573;28;20094;-65
2023/09/28 02:00:05;;;;;;;7.28;4.05;;;13.20;99.90;;;;;;5091781;28;20173;-65
2023/09/28 02:02:34;;;;;;;7.03;4.47;;;13.10;99.90;;;;;;5091333;28;20028;-65
2023/09/28 02:05:01;;;;;;;5.43;3.90;;;13.10;99.90;;;;;;5091439;28;20468;-65
2023/09/28 02:07:26;;;;;;;7.85;4.28;;;13.10;99.90;;;;;;5091951;28;20020;-65
2023/09/28 02:09:52;;;;;;;6.25;4.28;;;13.10;99.90;;;;;;5092187;28;20177;-65
2023/09/28 02:12:17;;;;;;;6.78;4.53;;;13.10;99.90;;;;;;5085425;28;20031;-72
2023/09/28 02:14:43;;;;;;;6.18;3.72;;;13.10;99.90;;;;;;5092936;28;20516;-65
2023/09/28 02:17:09;;;;;;;5.65;4.53;;;13.10;99.90;;;;;;5094868;28;20028;-65
2023/09/28 02:19:35;;;;;;;5.57;4.45;;;13.10;99.90;;;;;;5094822;28;20028;-65
2023/09/28 02:22:02;;;;;;;6.63;4.43;;;13.10;99.90;;;;;;5096150;28;20487;-65
2023/09/28 02:24:27;;;;;;;7.30;4.80;;;13.00;99.90;;;;;;5095741;28;20028;-65
2023/09/28 02:26:53;;;;;;;5.82;4.65;;;13.00;99.90;;;;;;5095325;28;20016;-65
2023/09/28 02:29:19;;;;;;;5.85;4.38;;;13.00;99.90;;;;;;5089866;28;20115;-71
2023/09/28 02:31:45;;;;;;;6.35;4.47;;;13.00;99.90;;;;;;5095695;28;20114;-65
2023/09/28 02:34:10;;;;;;;6.93;4.53;;;13.00;99.90;;;;;;5094449;28;20080;-65
2023/09/28 02:36:36;;;;;;;7.28;4.72;;;13.00;99.90;;;;;;5094580;28;20154;-65
2023/09/28 02:39:07;;;;;;;6.22;4.20;;;12.90;99.90;;;;;;5095303;28;20107;-68
2023/09/28 02:41:32;;;;;;;7.28;4.50;;;13.00;99.90;;;;;;5096024;28;20086;-65
2023/09/28 02:43:58;;;;;;;6.97;4.72;;;12.90;99.90;;;;;;5095512;28;20016;-65
2023/09/28 02:46:26;;;;;;;5.40;4.45;;;12.90;99.90;;;;;;5083070;28;20044;-65
2023/09/28 02:48:51;;;;;;;6.28;4.10;;;12.90;99.90;;;;;;5066790;28;20407;-65
2023/09/28 02:51:17;;;;;;;5.82;4.38;;;12.90;99.90;;;;;;5067259;28;20028;-71
2023/09/28 02:53:46;;;;;;;6.90;4.60;;;12.80;99.90;;;;;;5063429;28;20064;-65
2023/09/28 02:56:12;;;;;;;7.25;4.82;;;12.80;99.90;;;;;;5066547;28;20055;-65
2023/09/28 02:58:38;;;;;;;6.97;4.50;;;12.90;99.90;;;;;;5067635;28;20017;-65
2023/09/28 03:01:04;;;;;;;6.10;4.80;;;12.80;99.90;;;;;;5065880;28;20426;-65
2023/09/28 03:03:30;;;;;;;8.00;4.32;;;12.90;99.90;;;;;;5067713;28;20082;-65
2023/09/28 03:05:56;;;;;;;6.72;4.50;;;12.80;99.90;;;;;;5068316;28;20048;-65
2023/09/28 03:08:22;;;;;;;6.85;4.72;;;12.80;99.90;;;;;;5061665;28;20024;-66
2023/09/28 03:10:48;;;;;;;6.45;4.25;;;12.80;99.90;;;;;;5066586;28;20029;-65
2023/09/28 03:13:13;;;;;;;7.88;4.68;;;12.80;99.90;;;;;;5066825;28;20468;-70
2023/09/28 03:15:41;;;;;;;6.05;4.78;;;12.80;99.90;;;;;;5091141;28;20775;-65
2023/09/28 03:18:07;;;;;;;7.18;4.65;;;12.90;99.90;;;;;;5093064;28;20089;-65
2023/09/28 03:20:33;;;;;;;7.47;4.38;;;12.90;99.90;;;;;;5066675;28;20044;-65
2023/09/28 03:22:58;;;;;;;6.82;4.65;;;12.90;99.90;;;;;;5088513;28;20112;-64
2023/09/28 03:25:24;;;;;;;10.40;5.07;;;12.90;99.90;;;;;;5092361;28;20125;-65
2023/09/28 03:27:54;;;;;;;6.55;4.90;;;12.90;99.90;;;;;;5079686;28;20546;-65
2023/09/28 03:30:22;;;;;;;6.93;4.53;;;13.00;99.90;;;;;;5089390;28;20119;-69
2023/09/28 03:32:47;;;;;;;5.60;4.40;;;13.00;99.90;;;;;;5089452;28;20032;-65
2023/09/28 03:35:14;;;;;;;6.85;4.90;;;13.00;99.90;;;;;;5082804;28;20537;-68
2023/09/28 03:37:41;;;;;;;5.60;4.43;;;12.90;99.90;;;;;;5071338;28;20028;-65
2023/09/28 03:40:10;;;;;;;7.43;4.55;;;13.00;99.90;;;;;;5093187;28;20028;-65
2023/09/28 03:42:50;;;;;;;6.07;4.13;;;13.00;99.90;;;;;;5092628;28;20228;-65
2023/09/28 03:45:20;;;;;;;7.97;4.47;;;13.00;99.90;;;;;;5093028;28;20047;-71
2023/09/28 03:47:47;;;;;;;;;;;13.00;99.90;;;;;;5112582;28;20146;-65
2023/09/28 03:50:13;;;;;;;5.82;4.53;;;13.00;99.90;;;;;;5113401;28;20002;-65
2023/09/28 03:52:41;;;;;;;8.43;4.60;;;13.10;99.90;;;;;;5097208;28;20551;-65
2023/09/28 03:55:12;;;;;;;7.43;4.50;;;13.10;99.90;;;;;;5105680;28;20042;-65
2023/09/28 03:57:38;;;;;;;6.28;4.72;;;13.20;99.90;;;;;;5112628;28;20575;-65
2023/09/28 04:00:06;;;;;;;6.05;4.55;;;13.20;99.90;;;;;;5113172;28;20089;-65
2023/09/28 04:02:32;;;;;;;8.02;4.90;;;13.20;99.90;;;;;;5109057;28;20073;-65
2023/09/28 04:04:58;;;;;;;6.53;4.82;;;13.20;99.90;;;;;;5104668;28;20108;-65
2023/09/28 04:07:24;;;;;;;6.38;4.50;;;13.30;99.90;;;;;;5112557;28;20023;-65
2023/09/28 04:09:50;;;;;;;8.13;4.63;;;13.30;99.90;;;;;;5113005;28;20023;-65
2023/09/28 04:12:16;;;;;;;5.13;4.15;;;13.30;99.90;;;;;;5097718;28;20046;-65
2023/09/28 04:14:41;;;;;;;7.10;4.63;;;13.30;99.90;;;;;;5111964;28;20072;-65
2023/09/28 04:17:07;;;;;;;8.50;4.43;;;13.30;99.90;;;;;;5113260;28;20516;-65
2023/09/28 04:19:33;;;;;;;6.18;4.50;;;13.30;99.90;;;;;;5112396;28;20027;-66
2023/09/28 04:21:59;;;;;;;5.28;4.22;;;13.30;99.90;;;;;;5113159;28;20027;-65
2023/09/28 04:24:24;;;;;;;6.72;4.45;;;13.30;99.90;;;;;;5111444;28;20103;-65
2023/09/28 04:26:51;;;;;;;9.85;4.50;;;13.40;99.90;;;;;;5092964;28;20031;-64
2023/09/28 04:29:16;;;;;;;9.73;4.47;;;13.40;99.90;;;;;;5087343;28;20043;-71
2023/09/28 04:31:42;;;;;;;4.93;4.20;;;13.40;99.90;;;;;;5103623;28;20102;-65
2023/09/28 04:34:08;;;;;;;5.43;4.05;;;13.40;99.90;;;;;;5112729;28;20452;-65
2023/09/28 04:36:34;;;;;;;7.80;4.60;;;13.40;99.90;;;;;;5105677;28;20468;-65
2023/09/28 04:39:00;;;;;;;6.10;4.30;;;13.40;99.90;;;;;;5111924;28;20035;-65
2023/09/28 04:41:26;;;;;;;7.70;4.18;;;13.40;99.90;;;;;;5111359;28;20042;-65
2023/09/28 04:43:52;;;;;;;4.55;3.58;;;13.40;99.90;;;;;;5094226;28;20066;-65
2023/09/28 04:46:17;;;;;;;5.68;4.00;;;13.40;99.90;;;;;;5096209;28;20471;-71
2023/09/28 04:48:43;;;;;;;8.20;4.60;;;13.40;99.90;;;;;;5104672;28;20031;-65
2023/09/28 04:51:09;;;;;;;7.75;5.00;;;13.50;99.90;;;;;;5112576;28;20129;-65
2023/09/28 04:53:34;;;;;;;7.22;4.47;;;13.60;99.90;;;;;;5102867;28;20115;-65
2023/09/28 04:56:09;;;;;;;6.35;4.60;;;13.60;99.90;;;;;;5106339;28;20102;-65
2023/09/28 04:58:35;;;;;;;8.95;4.80;;;13.60;99.90;;;;;;5105106;28;20289;-65
2023/09/28 05:01:01;;;;;;;7.32;5.28;;;13.50;99.90;;;;;;5112397;28;20468;-65
2023/09/28 05:03:27;;;;;;;5.95;4.80;;;13.50;99.90;;;;;;5087940;28;20043;-65
2023/09/28 05:05:52;;;;;;;6.03;4.85;;;13.40;99.90;;;;;;5103204;28;20190;-65
2023/09/28 05:08:18;;;;;;;6.70;4.90;;;13.50;99.90;;;;;;5111526;28;20142;-71
2023/09/28 05:10:44;;;;;;;7.60;5.03;;;13.40;99.90;;;;;;5111694;28;20172;-65
2023/09/28 05:13:12;;;;;;;7.20;4.85;;;13.50;99.90;;;;;;5112239;28;20035;-64
2023/09/28 05:15:38;;;;;;;6.57;4.40;;;13.50;99.90;;;;;;5110784;28;20035;-66
2023/09/28 05:18:03;;;;;;;7.28;4.10;;;13.60;99.90;;;;;;5112050;28;20032;-65
2023/09/28 05:20:30;;;;;;;7.03;4.82;;;13.60;99.90;;;;;;5090776;28;20047;-65
2023/09/28 05:22:56;;;;;;;7.35;4.57;;;13.60;99.90;;;;;;5111767;28;20054;-65
2023/09/28 05:25:22;;;;;;;6.15;4.32;;;13.70;99.90;;;;;;5110991;28;20425;-66
2023/09/28 05:27:48;;;;;;;5.70;4.32;;;13.70;99.90;;;;;;5097947;28;20376;-65
2023/09/28 05:30:14;;;;;;;14.15;6.13;;;13.80;99.90;;;;;;5108941;28;20032;-65
2023/09/28 05:32:39;;;;;;;8.45;4.68;;;13.80;99.90;;;;;;5105343;28;20847;-67
2023/09/28 05:35:06;;;;;;;6.72;4.38;;;13.90;99.90;;;;;;5088505;28;20036;-67
2023/09/28 05:37:32;;;;;;;8.60;4.97;;;14.00;99.90;;;;;;5105243;28;20457;-67
2023/09/28 05:40:00;;;;;;;6.88;4.65;;;14.00;99.90;;;;;;5111517;28;20031;-67
2023/09/28 05:42:25;;;;;;;7.47;5.43;;;14.00;99.90;;;;;;5111106;28;20059;-66
2023/09/28 05:44:52;;;;;;;10.73;5.55;;;14.00;99.90;;;;;;5111246;28;20047;-68
2023/09/28 05:47:20;;;;;;;8.40;4.80;;;14.10;99.90;;;;;;5110568;28;20500;-71
2023/09/28 05:49:47;;;;;;;14.90;5.22;;;14.10;99.90;;;;;;5111249;28;20058;-66
2023/09/28 05:52:12;;;;;;;8.10;5.53;;;14.10;99.90;;;;;;5100212;28;20085;-66
2023/09/28 05:54:38;;;;;;;8.43;5.22;;;14.10;99.90;;;;;;5099526;28;20027;-66
2023/09/28 05:57:04;;;;;;;8.30;5.05;;;14.10;99.90;;;;;;5111472;28;20024;-67
2023/09/28 05:59:30;;;;;;;7.25;4.43;;;14.10;99.90;;;;;;5101545;28;20039;-66
2023/09/28 06:01:55;;;;;;;7.25;4.57;;;14.00;99.90;;;;;;5107389;28;20035;-65
2023/09/28 06:04:21;;;;;;;9.25;4.72;;;14.00;99.90;;;;;;5105292;28;20069;-70
2023/09/28 06:06:50;;;;;;;6.30;4.85;;;14.00;99.90;;;;;;5110680;28;20372;-64
2023/09/28 06:09:16;;;;;;;5.78;4.53;;;14.10;99.90;;;;;;5110608;28;20042;-70
2023/09/28 06:11:41;;;;;;;7.72;4.90;;;14.20;99.90;;;;;;5088591;28;20024;-64
2023/09/28 06:14:08;;;;;;;6.10;4.28;;;14.20;99.90;;;;;;5111178;28;20045;-64
2023/09/28 06:16:36;;;;;;;8.88;5.45;;;14.30;99.90;;;;;;5101001;28;20024;-64
2023/09/28 06:19:02;;;;;;;7.85;4.60;;;14.40;99.90;;;;;;5110779;28;20027;-64
2023/09/28 06:21:28;;;;;;;12.10;5.70;;;14.50;99.90;;;;;;5078878;28;20045;-64
2023/09/28 06:23:53;;;;;;;9.40;5.00;;;14.50;99.90;;;;;;5098679;28;20028;-65
2023/09/28 06:26:19;;;;;;;10.38;5.70;;;14.60;99.90;;;;;;5101360;28;20028;-70
2023/09/28 06:28:45;;;;;;;8.77;5.40;;;14.70;99.90;;;;;;5094855;28;20429;-72
2023/09/28 06:31:11;;;;;;;9.30;5.07;;;14.80;99.90;;;;;;5099033;28;20036;-70
2023/09/28 06:33:36;;;;;;;8.68;5.15;;;14.80;99.90;;;;;;5104843;28;20026;-71
2023/09/28 06:36:02;;;;;;;7.85;5.10;;;14.80;99.90;;;;;;5098492;28;20107;-71
2023/09/28 06:38:28;;;;;;;13.02;5.28;;;14.80;99.90;;;;;;5093687;28;20441;-71
2023/09/28 06:40:54;;;;;;;6.25;4.72;;;14.80;99.90;;;;;;5103838;28;20109;-69
2023/09/28 06:43:20;;;;;;;7.57;5.10;;;14.90;99.90;;;;;;5101452;28;20039;-70
2023/09/28 06:45:46;;;;;;;10.82;5.53;;;15.00;99.90;;;;;;5095185;28;20032;-69
2023/09/28 06:48:11;;;;;;;10.98;5.57;;;15.10;99.90;;;;;;5103928;28;20027;-70
2023/09/28 06:50:39;;;;;;;8.98;5.45;;;15.20;99.90;;;;;;5097498;28;20448;-70
2023/09/28 06:53:05;;;;;;;6.72;5.15;;;15.40;99.90;;;;;;5093907;28;20066;-69
2023/09/28 06:55:31;;;;;;;8.10;5.25;;;15.50;99.90;;;;;;5097377;28;20032;-70
2023/09/28 06:57:57;;;;;;;9.95;5.57;;;15.70;99.90;;;;;;5097539;28;20047;-70
2023/09/28 07:00:23;;;;;;;10.00;5.35;;;15.80;99.90;;;;;;5104484;28;20036;-70
2023/09/28 07:02:49;;;;;;;8.65;5.40;;;15.90;99.90;;;;;;5095071;28;20012;-71
2023/09/28 07:05:16;;;;;;;9.48;5.50;;;16.00;99.90;;;;;;5099047;28;20039;-69
2023/09/28 07:07:44;;;;;;;10.70;5.78;;;16.10;99.90;;;;;;5111265;28;20024;-69
2023/09/28 07:10:10;;;;;;;8.50;4.45;;;16.20;99.90;;;;;;5097635;28;20116;-71
2023/09/28 07:12:36;;;;;;;7.53;4.85;;;16.30;99.90;;;;;;5099912;28;20058;-71
2023/09/28 07:15:02;;;;;;;5.72;4.93;;;16.40;99.90;;;;;;5085451;28;20392;-64
2023/09/28 07:17:27;;;;;;;8.10;4.80;;;16.50;99.90;;;;;;5089827;28;20498;-65
2023/09/28 07:19:53;;;;;;;8.07;4.90;;;16.60;99.90;;;;;;5096589;28;20028;-65
2023/09/28 07:22:21;;;;;;;9.25;5.20;;;16.70;99.90;;;;;;5096520;28;20085;-71
2023/09/28 07:24:46;;;;;;;7.28;4.97;;;16.80;99.90;;;;;;5093964;28;20403;-66
2023/09/28 07:27:12;;;;;;;8.10;4.75;;;17.00;99.90;;;;;;5098674;28;20111;-65
2023/09/28 07:29:38;;;;;;;7.88;4.57;;;17.10;99.90;;;;;;5103563;28;20618;-65
2023/09/28 07:32:04;;;;;;;9.82;4.88;;;17.10;99.90;;;;;;5094985;28;20185;-65
2023/09/28 07:34:30;;;;;;;7.75;5.00;;;17.20;99.90;;;;;;5099643;28;20035;-65
2023/09/28 07:36:56;;;;;;;7.57;4.75;;;17.30;99.90;;;;;;5092544;28;20031;-65
2023/09/28 07:39:22;;;;;;;8.38;5.22;;;17.30;99.90;;;;;;5105382;28;20031;-65
2023/09/28 07:41:47;;;;;;;7.63;4.80;;;17.30;99.90;;;;;;5101906;28;20419;-65
2023/09/28 07:44:13;;;;;;;11.93;5.70;;;17.40;99.90;;;;;;5104645;28;20032;-64
2023/09/28 07:46:39;;;;;;;7.72;4.57;;;17.50;99.90;;;;;;5104821;28;20054;-65
2023/09/28 07:49:04;;;;;;;6.60;5.18;;;17.50;99.90;;;;;;5106950;28;20024;-64
2023/09/28 07:51:31;;;;;;;8.60;5.30;;;17.50;99.90;;;;;;5096392;28;20032;-65
2023/09/28 07:53:57;;;;;;;10.52;4.93;;;17.70;99.90;;;;;;5104894;28;20430;-65
2023/09/28 07:56:22;;;;;;;13.23;5.97;;;17.90;99.90;;;;;;5105850;28;20023;-64
2023/09/28 07:58:48;;;;;;;11.10;5.65;;;18.00;99.90;;;;;;5108946;28;20043;-65
2023/09/28 08:01:15;;;;;;;8.77;5.40;;;18.00;99.90;;;;;;5099146;28;20032;-65
2023/09/28 08:03:40;;;;;;;7.72;5.15;;;18.20;99.90;;;;;;5095374;28;20092;-65
2023/09/28 08:06:06;;;;;;;9.32;5.15;;;18.30;99.90;;;;;;5108800;28;20594;-64
2023/09/28 08:08:34;;;;;;;8.52;5.35;;;18.40;99.90;;;;;;5104716;28;20028;-64
2023/09/28 08:11:01;;;;;;;8.25;4.57;;;18.40;99.90;;;;;;5084926;28;20038;-64
2023/09/28 08:13:26;;;;;;;6.50;4.45;;;18.50;99.90;;;;;;5109604;28;20020;-65
2023/09/28 08:15:53;;;;;;;7.65;4.97;;;18.50;99.90;;;;;;5098952;28;20073;-64
2023/09/28 08:18:19;;;;;;;10.18;4.95;;;18.60;99.90;;;;;;5104298;28;20080;-70
2023/09/28 08:20:46;;;;;;;8.32;5.22;;;18.80;99.90;;;;;;5105574;28;20456;-64
2023/09/28 08:23:11;;;;;;;6.25;4.80;;;18.90;99.90;;;;;;5095657;28;20024;-64
2023/09/28 08:25:37;;;;;;;7.68;4.97;;;19.00;99.90;;;;;;5101555;28;20701;-64
2023/09/28 08:28:03;;;;;;;6.45;4.70;;;19.00;99.90;;;;;;5108431;28;20031;-64
2023/09/28 08:30:28;;;;;;;10.20;4.93;;;19.10;99.90;;;;;;5108183;28;20143;-64
2023/09/28 08:32:54;;;;;;;7.38;4.88;;;19.10;99.90;;;;;;5093939;28;20099;-64
2023/09/28 08:35:20;;;;;;;5.97;4.72;;;19.30;99.90;;;;;;5098984;28;20529;-70
2023/09/28 08:37:45;;;;;;;8.35;5.32;;;19.30;99.90;;;;;;5102832;28;20411;-64
2023/09/28 08:40:12;;;;;;;9.88;4.80;;;19.40;99.90;;;;;;5099399;28;20115;-64
2023/09/28 08:42:42;;;;;;;10.20;5.25;;;19.30;99.90;;;;;;5100046;28;20016;-65
2023/09/28 08:45:11;;;;;;;8.48;4.78;;;19.30;99.90;;;;;;5087182;28;20107;-64
2023/09/28 08:47:45;;;;;;;6.13;4.25;;;19.20;99.90;;;;;;5100375;28;20115;-64
2023/09/28 08:50:15;;;;;;;10.55;5.25;;;19.10;99.90;;;;;;5100182;28;20529;-64
2023/09/28 08:52:40;;;;;;;6.57;4.53;;;19.20;99.90;;;;;;5101110;28;20066;-64
2023/09/28 08:55:08;;;;;;;10.25;6.15;;;19.20;99.90;;;;;;5110450;28;20035;-65
2023/09/28 08:57:35;;;;;;;7.05;4.60;;;19.30;99.90;;;;;;5101236;28;20054;-66
2023/09/28 09:00:01;;;;;;;11.35;5.03;;;19.40;99.90;;;;;;5104096;28;20031;-64
2023/09/28 09:02:28;;;;;;;10.27;5.35;;;19.50;99.90;;;;;;5096840;28;20032;-65
2023/09/28 09:04:54;;;;;;;11.13;5.70;;;19.70;99.90;;;;;;5093282;28;20025;-65
2023/09/28 09:07:21;;;;;;;8.13;4.68;;;20.00;99.90;;;;;;5092498;28;20055;-71
2023/09/28 09:09:49;;;;;;;12.23;5.25;;;20.20;99.90;;;;;;5090289;28;20042;-68
2023/09/28 09:12:15;;;;;;;8.68;4.80;;;20.30;99.90;;;;;;5109917;28;20027;-64
2023/09/28 09:14:42;;;;;;;7.55;4.28;;;20.50;99.90;;;;;;5090946;28;20057;-65
2023/09/28 09:17:08;;;;;;;7.38;4.65;;;20.60;99.90;;;;;;5099947;28;20460;-65
2023/09/28 09:19:34;;;;;;;6.68;4.85;;;20.70;99.90;;;;;;5091003;28;20034;-65
2023/09/28 09:22:00;;;;;;;8.35;4.45;;;20.90;99.90;;;;;;5098028;28;20103;-65
2023/09/28 09:24:25;;;;;;;11.95;5.15;;;21.00;99.90;;;;;;5098618;28;20034;-65
2023/09/28 09:26:56;;;;;;;6.10;4.38;;;21.20;99.90;;;;;;5099895;28;20032;-64
2023/09/28 09:29:23;;;;;;;11.77;4.70;;;21.40;99.90;;;;;;5098852;28;20058;-65
2023/09/28 09:31:50;;;;;;;8.85;4.85;;;21.50;99.90;;;;;;5099946;28;20020;-65
2023/09/28 09:34:18;;;;;;;7.88;4.72;;;21.60;99.90;;;;;;5100919;28;20031;-71
2023/09/28 09:36:57;;;;;;;8.98;4.72;;;21.80;99.90;;;;;;5103951;28;20039;-65
2023/09/28 09:39:29;;;;;;;9.63;5.07;;;22.00;99.90;;;;;;5101713;28;20392;-67
2023/09/28 09:41:56;;;;;;;10.00;4.72;;;22.10;99.90;;;;;;5100543;28;20027;-65
2023/09/28 09:44:24;;;;;;;10.95;5.40;;;22.10;99.90;;;;;;5104397;28;20055;-65
2023/09/28 09:46:52;;;;;;;7.63;4.40;;;22.20;99.90;;;;;;5104799;28;20048;-64
2023/09/28 09:49:18;;;;;;;12.60;5.07;;;22.40;99.90;;;;;;5097511;28;20047;-70
2023/09/28 09:51:46;;;;;;;8.63;5.28;;;22.60;99.90;;;;;;5104254;28;20024;-64
2023/09/28 09:54:16;;;;;;;9.38;5.30;;;22.70;99.90;;;;;;5102400;28;20027;-65
2023/09/28 09:56:51;;;;;;;11.88;4.82;;;22.70;99.90;;;;;;5086962;28;20111;-65
2023/09/28 09:59:19;;;;;;;10.57;5.38;;;23.70;99.90;;;;;;5090054;28;20116;-72
2023/09/28 10:01:48;;;;;;;7.55;4.50;;;23.20;99.90;;;;;;5098475;28;20043;-64
2023/09/28 10:04:22;;;;;;;10.27;4.88;;;23.20;99.90;;;;;;5108583;28;20028;-64
2023/09/28 10:06:52;;;;;;;10.98;5.40;;;23.30;99.90;;;;;;5084940;28;20324;-65
2023/09/28 10:09:22;;;;;;;8.57;4.72;;;23.40;99.90;;;;;;5096210;28;21310;-71
2023/09/28 10:11:49;;;;;;;10.13;4.70;;;23.50;99.90;;;;;;5105456;28;20026;-64
2023/09/28 10:14:18;;;;;;;9.43;4.68;;;23.60;99.90;;;;;;5094374;28;20044;-64
2023/09/28 10:16:44;;;;;;;8.32;4.32;;;23.70;99.90;;;;;;5091065;28;20048;-64
2023/09/28 10:19:15;;;;;;;10.55;5.00;;;23.80;99.90;;;;;;5096178;28;20028;-64
2023/09/28 10:21:41;;;;;;;10.35;4.90;;;24.10;99.60;;;;;;5089703;28;20043;-64
2023/09/28 10:24:14;;;;;;;8.05;4.30;;;24.20;99.80;;;;;;5098376;28;20020;-65
2023/09/28 10:26:50;;;;;;;8.93;4.43;;;24.30;99.30;;;;;;5082065;28;20027;-64
2023/09/28 10:29:28;;;;;;;11.88;4.80;;;24.50;98.10;;;;;;5097353;28;20036;-64
2023/09/28 10:31:54;;;;;;;15.10;4.70;;;24.70;98.20;;;;;;5090467;28;20020;-65
2023/09/28 10:34:22;;;;;;;9.77;4.85;;;24.80;97.20;;;;;;5094661;28;20046;-71
2023/09/28 10:37:21;;;;;;;8.05;4.43;;;24.80;97.80;;;;;;5101470;28;20357;-64
2023/09/28 10:39:53;;;;;;;10.13;5.50;;;25.10;97.00;;;;;;5080659;28;20040;-64
2023/09/28 10:42:21;;;;;;;8.50;5.20;;;25.20;97.40;;;;;;5098041;28;20230;-71
2023/09/28 10:44:55;;;;;;;8.48;4.63;;;25.30;96.80;;;;;;5105462;28;20024;-64
2023/09/28 10:47:22;;;;;;;8.45;4.50;;;25.30;96.10;;;;;;5105155;28;20059;-65
2023/09/28 10:49:57;;;;;;;9.40;4.35;;;25.30;95.60;;;;;;5099560;28;20043;-64
2023/09/28 10:52:23;;;;;;;13.23;4.65;;;25.40;95.40;;;;;;5105984;28;20024;-65
2023/09/28 10:54:49;;;;;;;7.57;4.05;;;25.70;94.70;;;;;;5110709;28;20031;-65
2023/09/28 10:57:14;;;;;;;7.50;3.85;;;25.70;94.20;;;;;;5107350;28;20368;-64
2023/09/28 10:59:41;;;;;;;8.23;4.32;;;25.80;94.00;;;;;;5094904;28;20127;-67
2023/09/28 11:02:07;;;;;;;5.03;3.63;;;25.70;93.50;;;;;;5105912;28;20024;-66
2023/09/28 11:04:36;;;;;;;9.10;4.35;;;25.70;92.60;;;;;;5103216;28;20027;-64
2023/09/28 11:07:03;;;;;;;9.45;4.03;;;25.80;92.10;;;;;;5094840;28;20472;-64
2023/09/28 11:09:29;;;;;;;7.25;3.60;;;25.80;91.80;;;;;;5097607;28;20070;-64
2023/09/28 11:11:55;;;;;;;10.77;4.05;;;25.80;91.70;;;;;;5108312;28;20031;-64
2023/09/28 11:14:25;;;;;;;5.70;3.95;;;25.90;91.50;;;;;;5109501;28;20028;-66
2023/09/28 11:16:52;;;;;;;7.70;3.88;;;26.00;91.30;;;;;;5093812;28;20480;-64
2023/09/28 11:19:18;;;;;;;7.88;3.72;;;26.10;90.80;;;;;;5095345;28;20055;-70
2023/09/28 11:21:44;;;;;;;7.80;3.63;;;26.10;90.50;;;;;;5110190;28;20028;-64
2023/09/28 11:24:11;;;;;;;6.53;4.10;;;26.10;90.70;;;;;;5113086;28;20028;-65
2023/09/28 11:26:42;;;;;;;10.65;4.30;;;26.00;90.00;;;;;;5093307;28;20107;-64
2023/09/28 11:29:09;;;;;;;9.45;3.90;;;26.10;89.30;;;;;;5104211;28;20027;-64
2023/09/28 11:31:37;;;;;;;8.65;4.13;;;26.30;88.00;;;;;;5107878;28;20393;-64
2023/09/28 11:34:03;;;;;;;10.45;4.18;;;26.40;88.00;;;;;;5100523;28;20036;-65
2023/09/28 11:36:29;;;;;;;6.95;3.35;;;26.80;97.90;;;;;;5092806;28;20154;-66
2023/09/28 11:38:55;;;;;;;11.52;4.25;;;27.10;96.20;;;;;;5107048;28;20058;-64
2023/09/28 11:41:23;;;;;;;5.15;3.33;;;27.40;94.80;;;;;;5106743;28;20513;-65
2023/09/28 11:43:56;;;;;;;5.32;3.70;;;27.70;91.30;;;;;;5103679;28;20106;-65
2023/09/28 11:46:27;;;;;;;14.35;3.78;;;27.90;90.00;;;;;;5104716;28;20054;-66
2023/09/28 11:49:10;;;;;;;6.65;3.35;;;28.20;94.20;;;;;;5099864;28;20031;-66
2023/09/28 11:51:37;;;;;;;6.40;3.40;;;28.50;90.50;;;;;;5087159;28;20063;-65
2023/09/28 11:54:22;;;;;;;4.72;3.30;;;28.70;90.10;;;;;;5104197;28;20475;-65
2023/09/28 11:56:49;;;;;;;3.83;2.95;;;28.80;87.40;;;;;;5102927;28;20024;-65
2023/09/28 11:59:17;;;;;;;5.40;2.88;;;28.90;77.10;;;;;;5094702;28;20028;-65
2023/09/28 12:01:44;;;;;;;3.67;3.17;;;29.20;77.00;;;;;;5101214;28;20103;-65
2023/09/28 12:04:10;;;;;;;4.57;3.55;;;;;;;;;;5105834;28;20024;-68
2023/09/28 12:06:37;;;;;;;9.68;3.05;;;29.90;98.10;;;;;;5105952;28;20026;-65
2023/09/28 12:09:05;;;;;;;3.90;3.20;;;30.10;73.40;;;;;;5095818;28;20028;-65
2023/09/28 12:11:35;;;;;;;5.47;3.53;;;30.30;73.50;;;;;;5103131;28;20388;-65
2023/09/28 12:14:00;;;;;;;3.35;3.03;;;30.40;72.40;;;;;;5109876;28;20372;-65
2023/09/28 12:16:28;;;;;;;6.18;3.45;;;30.60;71.80;;;;;;5111361;28;20037;-65
2023/09/28 12:18:54;;;;;;;7.78;3.38;;;30.90;78.30;;;;;;5107836;28;20040;-66
2023/09/28 12:21:20;;;;;;;4.43;3.08;;;31.00;70.60;;;;;;5105424;28;20020;-71
2023/09/28 12:23:46;;;;;;;3.92;2.92;;;31.20;69.50;;;;;;5111108;28;20027;-65
2023/09/28 12:26:12;;;;;;;4.45;2.95;;;31.40;69.00;;;;;;5090129;28;20102;-65
2023/09/28 12:28:38;;;;;;;3.72;2.95;;;31.40;68.60;;;;;;5087552;28;20012;-65
2023/09/28 12:31:04;;;;;;;4.22;2.80;;;31.60;68.50;;;;;;5081900;28;20047;-65
2023/09/28 12:33:30;;;;;;;3.75;2.55;;;31.90;67.40;;;;;;5084732;28;20460;-65
2023/09/28 12:35:59;;;;;;;7.93;3.38;;;31.90;67.00;;;;;;5095545;28;20027;-65
2023/09/28 12:38:24;;;;;;;4.53;2.88;;;32.00;66.80;;;;;;5093948;28;20059;-65
2023/09/28 12:40:50;;;;;;;3.10;2.80;;;32.10;65.90;;;;;;5109357;28;20420;-66
2023/09/28 12:43:16;;;;;;;7.45;2.90;;;32.10;66.10;;;;;;5093732;28;20028;-66
2023/09/28 12:45:43;;;;;;;4.47;2.60;;;32.20;65.90;;;;;;5095605;28;20059;-67